Wetterdaten: Woche 05.08.13 - 11.08.13 (KW32)
Datum Zeit Temperatur Luftfeuchte Luftdruck Niederschlag Windrichtung Sonnenschein Solar Wind
05.08.2013 00:00 16,9 C 96 % 1018,8 hPa 0,0 l/m N 0,00 h 0 W/m 0,4 km/h (0 Bft)
05.08.2013 01:00 16,6 C 96 % 1018,4 hPa 0,0 l/m N 0,00 h 0 W/m 1,5 km/h (1 Bft)
05.08.2013 02:00 16,3 C 96 % 1017,8 hPa 0,0 l/m N 0,00 h 0 W/m 1,1 km/h (0 Bft)
05.08.2013 03:00 16,2 C 96 % 1017,3 hPa 0,0 l/m W-NW 0,00 h 0 W/m 5,1 km/h (1 Bft)
05.08.2013 04:00 15,9 C 96 % 1016,9 hPa 0,0 l/m W-NW 0,00 h 0 W/m 6,7 km/h (2 Bft)
05.08.2013 05:00 15,5 C 96 % 1016,4 hPa 0,0 l/m W-NW 0,00 h 0 W/m 2,8 km/h (1 Bft)
05.08.2013 06:00 15,4 C 97 % 1016,2 hPa 0,0 l/m N 0,08 h 21 W/m 3,2 km/h (1 Bft)
05.08.2013 07:00 16,3 C 96 % 1016,1 hPa 0,0 l/m W-NW 0,33 h 108 W/m 2,5 km/h (1 Bft)
05.08.2013 08:00 18,3 C 91 % 1016,0 hPa 0,0 l/m W-NW 1,00 h 278 W/m 5,2 km/h (1 Bft)
05.08.2013 09:00 20,8 C 82 % 1016,0 hPa 0,0 l/m O-NO 1,00 h 439 W/m 7,8 km/h (2 Bft)
05.08.2013 10:00 22,4 C 76 % 1015,6 hPa 0,0 l/m O-NO 0,92 h 565 W/m 10,3 km/h (2 Bft)
05.08.2013 11:00 24,3 C 71 % 1014,9 hPa 0,0 l/m O-NO 1,00 h 713 W/m 12,2 km/h (2 Bft)
05.08.2013 12:00 26,1 C 64 % 1014,5 hPa 0,0 l/m O-NO 1,00 h 797 W/m 11,3 km/h (2 Bft)
05.08.2013 13:00 27,8 C 59 % 1014,0 hPa 0,0 l/m N-NO 1,00 h 831 W/m 10,3 km/h (2 Bft)
05.08.2013 14:00 29,2 C 53 % 1013,4 hPa 0,0 l/m O-SO 1,00 h 817 W/m 12,0 km/h (2 Bft)
05.08.2013 15:00 30,5 C 48 % 1012,9 hPa 0,0 l/m O 1,00 h 754 W/m 10,9 km/h (2 Bft)
05.08.2013 16:00 31,1 C 46 % 1012,3 hPa 0,0 l/m O-NO 1,00 h 645 W/m 8,9 km/h (2 Bft)
05.08.2013 17:00 31,3 C 45 % 1011,8 hPa 0,0 l/m O-NO 1,00 h 508 W/m 7,4 km/h (2 Bft)
05.08.2013 18:00 30,9 C 46 % 1011,3 hPa 0,0 l/m N-NO 1,00 h 343 W/m 6,2 km/h (2 Bft)
05.08.2013 19:00 29,2 C 55 % 1011,2 hPa 0,0 l/m N-NO 0,67 h 140 W/m 3,2 km/h (1 Bft)
05.08.2013 20:00 25,4 C 71 % 1011,7 hPa 0,0 l/m N 0,00 h 15 W/m 0,9 km/h (0 Bft)
05.08.2013 21:00 23,1 C 75 % 1012,2 hPa 0,0 l/m N 0,00 h 0 W/m 0,1 km/h (0 Bft)
05.08.2013 22:00 22,1 C 78 % 1012,8 hPa 0,0 l/m N 0,00 h 0 W/m 0,9 km/h (0 Bft)
05.08.2013 23:00 23,1 C 67 % 1013,0 hPa 0,0 l/m SW 0,00 h 0 W/m 8,6 km/h (2 Bft)
06.08.2013 00:00 25,1 C 50 % 1012,9 hPa 0,0 l/m W 0,00 h 0 W/m 19,8 km/h (4 Bft)
06.08.2013 01:00 24,0 C 56 % 1013,1 hPa 0,0 l/m SW 0,00 h 0 W/m 20,9 km/h (4 Bft)
06.08.2013 02:00 22,6 C 60 % 1012,9 hPa 0,0 l/m W-SW 0,00 h 0 W/m 17,7 km/h (3 Bft)
06.08.2013 03:00 22,0 C 60 % 1012,8 hPa 0,0 l/m W-SW 0,00 h 0 W/m 12,6 km/h (3 Bft)
06.08.2013 04:00 19,6 C 72 % 1012,5 hPa 0,0 l/m N 0,00 h 0 W/m 2,8 km/h (1 Bft)
06.08.2013 05:00 18,2 C 79 % 1012,6 hPa 0,0 l/m N 0,00 h 0 W/m 1,2 km/h (1 Bft)
06.08.2013 06:00 17,4 C 84 % 1012,8 hPa 0,0 l/m N 0,00 h 18 W/m 0,1 km/h (0 Bft)
06.08.2013 07:00 18,6 C 83 % 1013,0 hPa 0,0 l/m N 0,33 h 108 W/m 2,0 km/h (1 Bft)
06.08.2013 08:00 21,2 C 75 % 1013,2 hPa 0,0 l/m S-SW 0,33 h 199 W/m 4,1 km/h (1 Bft)
06.08.2013 09:00 23,8 C 66 % 1012,9 hPa 0,0 l/m S-SW 0,67 h 357 W/m 3,2 km/h (1 Bft)
06.08.2013 10:00 25,7 C 62 % 1012,5 hPa 0,0 l/m S-SW 0,67 h 477 W/m 5,5 km/h (1 Bft)
06.08.2013 11:00 26,9 C 62 % 1012,2 hPa 0,0 l/m O 0,92 h 673 W/m 7,8 km/h (2 Bft)
06.08.2013 12:00 28,0 C 60 % 1011,8 hPa 0,0 l/m NO 0,67 h 628 W/m 8,2 km/h (2 Bft)
06.08.2013 13:00 29,0 C 56 % 1011,1 hPa 0,0 l/m O 0,75 h 725 W/m 10,5 km/h (2 Bft)
06.08.2013 14:00 30,5 C 47 % 1010,0 hPa 0,0 l/m O 1,00 h 795 W/m 11,2 km/h (2 Bft)
06.08.2013 15:00 31,3 C 46 % 1009,3 hPa 0,0 l/m SO 1,00 h 741 W/m 11,3 km/h (2 Bft)
06.08.2013 16:00 31,1 C 47 % 1008,9 hPa 0,0 l/m O-SO 0,58 h 320 W/m 10,3 km/h (2 Bft)
06.08.2013 17:00 22,5 C 71 % 1009,8 hPa 0,0 l/m N-NO 0,17 h 178 W/m 23,3 km/h (4 Bft)
06.08.2013 18:00 22,1 C 71 % 1010,1 hPa 0,0 l/m N 0,83 h 294 W/m 18,5 km/h (3 Bft)
06.08.2013 19:00 21,1 C 83 % 1010,0 hPa 0,0 l/m N 0,00 h 39 W/m 9,0 km/h (2 Bft)
06.08.2013 20:00 19,7 C 89 % 1011,9 hPa 14,6 l/m SW 0,00 h 0 W/m 22,0 km/h (4 Bft)
06.08.2013 21:00 17,3 C 95 % 1012,6 hPa 3,4 l/m SW 0,00 h 0 W/m 11,9 km/h (2 Bft)
06.08.2013 22:00 17,3 C 94 % 1010,8 hPa 0,2 l/m W-NW 0,00 h 0 W/m 19,7 km/h (3 Bft)
06.08.2013 23:00 16,8 C 94 % 1011,3 hPa 0,0 l/m S 0,00 h 0 W/m 3,2 km/h (1 Bft)
07.08.2013 00:00 16,2 C 97 % 1010,7 hPa 0,0 l/m S 0,00 h 0 W/m 1,1 km/h (0 Bft)
07.08.2013 01:00 15,8 C 98 % 1010,3 hPa 0,0 l/m N 0,00 h 0 W/m 1,6 km/h (1 Bft)
07.08.2013 02:00 15,5 C 98 % 1009,9 hPa 0,0 l/m N 0,00 h 0 W/m 3,7 km/h (1 Bft)
07.08.2013 03:00 15,9 C 98 % 1010,3 hPa 0,2 l/m N-NW 0,00 h 0 W/m 13,8 km/h (3 Bft)
07.08.2013 04:00 16,3 C 97 % 1009,5 hPa 0,0 l/m N-NO 0,00 h 0 W/m 11,4 km/h (2 Bft)
07.08.2013 05:00 16,3 C 96 % 1008,1 hPa 0,0 l/m NO 0,00 h 0 W/m 8,2 km/h (2 Bft)
07.08.2013 06:00 15,7 C 96 % 1008,0 hPa 0,0 l/m W-NW 0,00 h 15 W/m 6,7 km/h (2 Bft)
07.08.2013 07:00 17,0 C 92 % 1010,7 hPa 0,0 l/m W-NW 0,00 h 20 W/m 14,7 km/h (3 Bft)
07.08.2013 08:00 16,8 C 94 % 1009,7 hPa 1,0 l/m O 0,00 h 24 W/m 9,8 km/h (2 Bft)
07.08.2013 09:00 17,2 C 95 % 1009,9 hPa 0,0 l/m SW 0,17 h 180 W/m 5,2 km/h (1 Bft)
07.08.2013 10:00 19,2 C 86 % 1009,5 hPa 0,0 l/m O-NO 0,58 h 437 W/m 8,3 km/h (2 Bft)
07.08.2013 11:00 21,6 C 78 % 1009,3 hPa 0,0 l/m O 1,00 h 672 W/m 10,5 km/h (2 Bft)
07.08.2013 12:00 23,4 C 72 % 1008,6 hPa 0,0 l/m O 0,58 h 600 W/m 8,7 km/h (2 Bft)
07.08.2013 13:00 24,8 C 68 % 1008,7 hPa 0,0 l/m O 0,75 h 614 W/m 8,9 km/h (2 Bft)
07.08.2013 14:00 24,4 C 67 % 1008,9 hPa 0,0 l/m W-NW 0,08 h 170 W/m 8,3 km/h (2 Bft)
07.08.2013 15:00 24,5 C 68 % 1007,9 hPa 0,0 l/m O 0,00 h 207 W/m 8,2 km/h (2 Bft)
07.08.2013 16:00 24,5 C 70 % 1008,4 hPa 0,0 l/m N-NO 0,00 h 181 W/m 5,8 km/h (1 Bft)
07.08.2013 17:00 23,9 C 74 % 1008,3 hPa 0,0 l/m N-NO 0,00 h 117 W/m 13,3 km/h (3 Bft)
07.08.2013 18:00 23,4 C 76 % 1008,3 hPa 0,0 l/m N-NO 0,00 h 63 W/m 10,2 km/h (2 Bft)
07.08.2013 19:00 22,6 C 77 % 1008,6 hPa 0,0 l/m N-NW 0,00 h 44 W/m 10,3 km/h (2 Bft)
07.08.2013 20:00 21,7 C 76 % 1008,7 hPa 0,0 l/m N 0,00 h 13 W/m 17,2 km/h (3 Bft)
07.08.2013 21:00 20,0 C 78 % 1009,2 hPa 0,0 l/m N-NW 0,00 h 0 W/m 11,3 km/h (2 Bft)
07.08.2013 22:00 19,5 C 80 % 1010,6 hPa 0,0 l/m NW 0,00 h 0 W/m 9,1 km/h (2 Bft)
07.08.2013 23:00 19,2 C 81 % 1011,1 hPa 0,0 l/m NW 0,00 h 0 W/m 4,8 km/h (1 Bft)
08.08.2013 00:00 18,8 C 80 % 1011,9 hPa 0,0 l/m N 0,00 h 0 W/m 2,5 km/h (1 Bft)
08.08.2013 01:00 17,7 C 84 % 1011,6 hPa 0,0 l/m NW 0,00 h 0 W/m 2,1 km/h (1 Bft)
08.08.2013 02:00 17,0 C 88 % 1011,7 hPa 0,0 l/m NW 0,00 h 0 W/m 3,2 km/h (1 Bft)
08.08.2013 03:00 16,9 C 88 % 1011,3 hPa 0,0 l/m N 0,00 h 0 W/m 1,7 km/h (1 Bft)
08.08.2013 04:00 16,4 C 92 % 1011,0 hPa 0,0 l/m N 0,00 h 0 W/m 1,3 km/h (1 Bft)
08.08.2013 05:00 16,2 C 94 % 1011,3 hPa 0,0 l/m N 0,00 h 0 W/m 0,0 km/h (0 Bft)
08.08.2013 06:00 16,6 C 93 % 1011,6 hPa 0,0 l/m NW 0,00 h 9 W/m 2,1 km/h (1 Bft)
08.08.2013 07:00 16,7 C 91 % 1012,1 hPa 0,0 l/m NW 0,00 h 23 W/m 4,1 km/h (1 Bft)
08.08.2013 08:00 16,3 C 94 % 1012,6 hPa 2,0 l/m NW 0,00 h 74 W/m 4,0 km/h (1 Bft)
08.08.2013 09:00 16,8 C 96 % 1013,2 hPa 0,0 l/m SW 0,00 h 62 W/m 7,5 km/h (2 Bft)
08.08.2013 10:00 17,5 C 94 % 1012,3 hPa 0,2 l/m O 0,33 h 351 W/m 5,7 km/h (1 Bft)
08.08.2013 11:00 18,9 C 89 % 1012,9 hPa 0,0 l/m SW 0,00 h 203 W/m 7,6 km/h (2 Bft)
08.08.2013 12:00 18,4 C 92 % 1012,5 hPa 0,8 l/m N 0,00 h 121 W/m 5,9 km/h (2 Bft)
08.08.2013 13:00 18,7 C 92 % 1012,9 hPa 0,0 l/m NW 0,00 h 162 W/m 5,2 km/h (1 Bft)
08.08.2013 14:00 19,1 C 92 % 1013,9 hPa 0,6 l/m N 0,00 h 135 W/m 3,9 km/h (1 Bft)
08.08.2013 15:00 19,8 C 89 % 1013,8 hPa 0,0 l/m O-NO 0,00 h 198 W/m 2,9 km/h (1 Bft)
08.08.2013 16:00 19,7 C 88 % 1013,5 hPa 0,0 l/m S 0,00 h 130 W/m 4,4 km/h (1 Bft)
08.08.2013 17:00 19,7 C 88 % 1014,0 hPa 0,0 l/m S-SO 0,00 h 98 W/m 4,9 km/h (1 Bft)
08.08.2013 18:00 19,3 C 92 % 1014,5 hPa 0,0 l/m W-SW 0,00 h 71 W/m 3,1 km/h (1 Bft)
08.08.2013 19:00 19,1 C 93 % 1014,9 hPa 0,0 l/m W 0,00 h 40 W/m 1,9 km/h (1 Bft)
08.08.2013 20:00 18,4 C 95 % 1015,5 hPa 0,0 l/m N 0,00 h 13 W/m 0,4 km/h (0 Bft)
08.08.2013 21:00 17,8 C 96 % 1016,2 hPa 0,0 l/m N 0,00 h 0 W/m 0,8 km/h (0 Bft)
08.08.2013 22:00 17,2 C 97 % 1016,6 hPa 0,0 l/m N 0,00 h 0 W/m 1,1 km/h (0 Bft)
08.08.2013 23:00 17,3 C 97 % 1017,1 hPa 0,0 l/m W 0,00 h 0 W/m 1,9 km/h (1 Bft)
09.08.2013 00:00 17,2 C 97 % 1017,3 hPa 0,0 l/m N 0,00 h 0 W/m 0,5 km/h (0 Bft)
09.08.2013 01:00 16,9 C 98 % 1017,3 hPa 0,0 l/m N 0,00 h 0 W/m 0,9 km/h (0 Bft)
09.08.2013 02:00 16,6 C 98 % 1017,3 hPa 0,0 l/m W 0,00 h 0 W/m 1,5 km/h (1 Bft)
09.08.2013 03:00 16,7 C 98 % 1017,3 hPa 0,0 l/m W 0,00 h 0 W/m 2,0 km/h (1 Bft)
09.08.2013 04:00 16,7 C 98 % 1017,2 hPa 0,0 l/m N 0,00 h 0 W/m 1,6 km/h (1 Bft)
09.08.2013 05:00 16,7 C 98 % 1017,0 hPa 0,4 l/m N 0,00 h 0 W/m 1,6 km/h (1 Bft)
09.08.2013 06:00 16,4 C 98 % 1017,0 hPa 1,2 l/m W 0,00 h 7 W/m 4,1 km/h (1 Bft)
09.08.2013 07:00 16,2 C 98 % 1017,2 hPa 0,4 l/m N-NW 0,00 h 12 W/m 8,4 km/h (2 Bft)
09.08.2013 08:00 15,5 C 98 % 1017,6 hPa 0,6 l/m N-NW 0,00 h 22 W/m 13,0 km/h (3 Bft)
09.08.2013 09:00 15,0 C 98 % 1017,9 hPa 3,4 l/m N 0,00 h 48 W/m 10,8 km/h (2 Bft)
09.08.2013 10:00 15,3 C 98 % 1018,1 hPa 0,0 l/m N 0,00 h 78 W/m 8,2 km/h (2 Bft)
09.08.2013 11:00 15,8 C 97 % 1018,2 hPa 0,6 l/m N-NO 0,00 h 135 W/m 8,7 km/h (2 Bft)
09.08.2013 12:00 15,9 C 95 % 1018,5 hPa 0,2 l/m N 0,00 h 95 W/m 8,0 km/h (2 Bft)
09.08.2013 13:00 16,0 C 96 % 1018,5 hPa 1,2 l/m N 0,00 h 113 W/m 4,8 km/h (1 Bft)
09.08.2013 14:00 16,1 C 95 % 1018,5 hPa 0,2 l/m N 0,00 h 93 W/m 6,1 km/h (2 Bft)
09.08.2013 15:00 15,7 C 96 % 1018,6 hPa 1,8 l/m N 0,00 h 49 W/m 4,0 km/h (1 Bft)
09.08.2013 16:00 15,4 C 97 % 1018,9 hPa 1,8 l/m N 0,00 h 38 W/m 1,1 km/h (0 Bft)
09.08.2013 17:00 15,4 C 98 % 1019,1 hPa 0,0 l/m W-SW 0,00 h 34 W/m 7,9 km/h (2 Bft)
09.08.2013 18:00 15,1 C 98 % 1019,3 hPa 0,0 l/m SW 0,00 h 67 W/m 9,5 km/h (2 Bft)
09.08.2013 19:00 15,2 C 98 % 1019,7 hPa 0,0 l/m SW 0,50 h 113 W/m 11,6 km/h (2 Bft)
09.08.2013 20:00 14,3 C 97 % 1020,1 hPa 0,2 l/m SW 0,08 h 15 W/m 11,7 km/h (2 Bft)
09.08.2013 21:00 13,7 C 98 % 1020,5 hPa 0,0 l/m SW 0,00 h 0 W/m 8,0 km/h (2 Bft)
09.08.2013 22:00 13,6 C 98 % 1020,7 hPa 0,0 l/m SW 0,00 h 0 W/m 5,7 km/h (1 Bft)
09.08.2013 23:00 12,9 C 98 % 1020,8 hPa 0,0 l/m N 0,00 h 0 W/m 1,9 km/h (1 Bft)
10.08.2013 00:00 12,6 C 99 % 1020,8 hPa 0,0 l/m N 0,00 h 0 W/m 0,4 km/h (0 Bft)
10.08.2013 01:00 12,6 C 99 % 1020,9 hPa 0,0 l/m SW 0,00 h 0 W/m 3,2 km/h (1 Bft)
10.08.2013 02:00 12,7 C 100 % 1020,7 hPa 0,0 l/m SW 0,00 h 0 W/m 5,2 km/h (1 Bft)
10.08.2013 03:00 12,6 C 100 % 1020,5 hPa 0,0 l/m SW 0,00 h 0 W/m 3,7 km/h (1 Bft)
10.08.2013 04:00 12,4 C 100 % 1020,4 hPa 0,0 l/m SW 0,00 h 0 W/m 4,7 km/h (1 Bft)
10.08.2013 05:00 12,7 C 100 % 1020,1 hPa 0,0 l/m SW 0,00 h 0 W/m 8,3 km/h (2 Bft)
10.08.2013 06:00 13,0 C 100 % 1020,2 hPa 0,0 l/m SW 0,00 h 9 W/m 8,0 km/h (2 Bft)
10.08.2013 07:00 13,1 C 100 % 1020,2 hPa 0,0 l/m SW 0,00 h 31 W/m 8,2 km/h (2 Bft)
10.08.2013 08:00 13,4 C 100 % 1020,5 hPa 0,0 l/m SW 0,00 h 85 W/m 8,8 km/h (2 Bft)
10.08.2013 09:00 14,2 C 99 % 1020,4 hPa 0,0 l/m W-SW 0,00 h 131 W/m 10,1 km/h (2 Bft)
10.08.2013 10:00 15,5 C 94 % 1020,5 hPa 0,0 l/m W 0,00 h 185 W/m 7,4 km/h (2 Bft)
10.08.2013 11:00 17,0 C 91 % 1020,5 hPa 0,0 l/m W-SW 0,25 h 370 W/m 8,4 km/h (2 Bft)
10.08.2013 12:00 19,2 C 83 % 1019,9 hPa 0,0 l/m SW 0,83 h 780 W/m 14,6 km/h (3 Bft)
10.08.2013 13:00 20,8 C 72 % 1019,3 hPa 0,0 l/m SW 0,67 h 614 W/m 15,0 km/h (3 Bft)
10.08.2013 14:00 22,1 C 62 % 1018,8 hPa 0,0 l/m SW 1,00 h 829 W/m 18,0 km/h (3 Bft)
10.08.2013 15:00 22,9 C 57 % 1018,5 hPa 0,0 l/m W-SW 0,92 h 744 W/m 16,4 km/h (3 Bft)
10.08.2013 16:00 23,0 C 54 % 1018,1 hPa 0,0 l/m SW 0,67 h 515 W/m 16,5 km/h (3 Bft)
10.08.2013 17:00 23,1 C 53 % 1017,8 hPa 0,0 l/m W-SW 0,75 h 398 W/m 14,2 km/h (3 Bft)
10.08.2013 18:00 21,3 C 61 % 1017,6 hPa 0,0 l/m W 0,25 h 155 W/m 10,7 km/h (2 Bft)
10.08.2013 19:00 20,4 C 70 % 1017,5 hPa 0,0 l/m W 0,17 h 77 W/m 2,4 km/h (1 Bft)
10.08.2013 20:00 18,8 C 78 % 1017,4 hPa 0,0 l/m W 0,00 h 6 W/m 11,0 km/h (2 Bft)
10.08.2013 21:00 18,0 C 77 % 1017,9 hPa 0,2 l/m W 0,00 h 0 W/m 17,2 km/h (3 Bft)
10.08.2013 22:00 16,0 C 91 % 1018,1 hPa 0,4 l/m W-NW 0,00 h 0 W/m 7,9 km/h (2 Bft)
10.08.2013 23:00 15,7 C 95 % 1018,3 hPa 0,0 l/m N 0,00 h 0 W/m 0,7 km/h (0 Bft)
11.08.2013 00:00 15,1 C 96 % 1018,5 hPa 0,0 l/m NW 0,00 h 0 W/m 1,1 km/h (0 Bft)
11.08.2013 01:00 14,0 C 97 % 1018,5 hPa 0,0 l/m N 0,00 h 0 W/m 0,4 km/h (0 Bft)
11.08.2013 02:00 14,0 C 98 % 1018,3 hPa 0,0 l/m N 0,00 h 0 W/m 0,1 km/h (0 Bft)
11.08.2013 03:00 13,9 C 98 % 1018,1 hPa 0,0 l/m N 0,00 h 0 W/m 0,5 km/h (0 Bft)
11.08.2013 04:00 13,6 C 98 % 1017,8 hPa 0,0 l/m N 0,00 h 0 W/m 0,5 km/h (0 Bft)
11.08.2013 05:00 13,1 C 97 % 1017,7 hPa 0,0 l/m N 0,00 h 0 W/m 0,1 km/h (0 Bft)
11.08.2013 06:00 13,0 C 98 % 1018,0 hPa 0,0 l/m N 0,00 h 12 W/m 0,5 km/h (0 Bft)
11.08.2013 07:00 13,7 C 98 % 1018,1 hPa 0,0 l/m N 0,00 h 51 W/m 0,3 km/h (0 Bft)
11.08.2013 08:00 15,5 C 92 % 1018,0 hPa 0,0 l/m N 0,67 h 235 W/m 0,3 km/h (0 Bft)
11.08.2013 09:00 17,2 C 79 % 1018,0 hPa 0,0 l/m O-NO 0,67 h 388 W/m 3,2 km/h (1 Bft)
11.08.2013 10:00 18,9 C 70 % 1017,8 hPa 0,0 l/m SO 0,83 h 556 W/m 7,7 km/h (2 Bft)
11.08.2013 11:00 19,3 C 67 % 1017,8 hPa 0,0 l/m W 0,33 h 352 W/m 10,2 km/h (2 Bft)
11.08.2013 12:00 19,3 C 69 % 1017,5 hPa 0,0 l/m W 0,17 h 288 W/m 8,3 km/h (2 Bft)
11.08.2013 13:00 20,8 C 61 % 1017,0 hPa 0,0 l/m W 0,42 h 554 W/m 11,2 km/h (2 Bft)
11.08.2013 14:00 20,9 C 61 % 1016,5 hPa 0,0 l/m W-NW 0,25 h 433 W/m 10,4 km/h (2 Bft)
11.08.2013 15:00 21,9 C 58 % 1016,1 hPa 0,0 l/m W-NW 0,42 h 450 W/m 12,5 km/h (3 Bft)
11.08.2013 16:00 22,2 C 58 % 1015,6 hPa 0,0 l/m NW 0,58 h 490 W/m 9,0 km/h (2 Bft)
11.08.2013 17:00 21,9 C 58 % 1015,4 hPa 0,0 l/m W 0,17 h 161 W/m 7,2 km/h (2 Bft)
11.08.2013 18:00 21,1 C 64 % 1015,1 hPa 0,0 l/m W 0,00 h 82 W/m 4,5 km/h (1 Bft)
11.08.2013 19:00 20,8 C 63 % 1015,2 hPa 0,0 l/m N-NW 0,17 h 96 W/m 6,8 km/h (2 Bft)
11.08.2013 20:00 18,5 C 72 % 1015,7 hPa 0,0 l/m N-NW 0,08 h 14 W/m 3,1 km/h (1 Bft)
11.08.2013 21:00 16,3 C 81 % 1016,4 hPa 0,0 l/m N 0,00 h 0 W/m 0,8 km/h (0 Bft)
11.08.2013 22:00 15,1 C 86 % 1016,6 hPa 0,0 l/m N 0,00 h 0 W/m 0,4 km/h (0 Bft)
11.08.2013 23:00 14,2 C 89 % 1016,7 hPa 0,0 l/m N 0,00 h 0 W/m 0,8 km/h (0 Bft)
Min-Datum _ 10.08.13 05.08.13 07.08.13 - - - - 05.08.13
_ Min-Zeit 04:05 17:20 06:10 - - - - 00:00
Minimum _ 12,3 C 43 % 1007,3 hPa - - - - 0,0 km/h (0 Bft)
Max-Datum _ 06.08.13 09.08.13 10.08.13 06.08.13 - 05.08.13 11.08.13 06.08.13
_ Max-Zeit 16:05 19:00 01:30 20:35 - 06:15 13:25 20:35
Maximum _ 32,1 C 100 % 1021,0 hPa 14,6 l/m - 0,08 h 1048 W/m 43,5 km/h
SW (6 Bft)
Durchschnitt _ 19,0 C 83 % 1014,8 hPa #35,6 l/m SW #34:15 h 265 W/m 6,8 km/h (2 Bft)